sensor_id;sensor_type;location;lat;lon;timestamp;temperature;humidity
2873;DHT22;1444;49.166;7.312;2022-07-21T00:00:27;21.80;99.90
2873;DHT22;1444;49.166;7.312;2022-07-21T00:02:55;21.70;99.90
2873;DHT22;1444;49.166;7.312;2022-07-21T00:05:22;21.70;99.90
2873;DHT22;1444;49.166;7.312;2022-07-21T00:07:50;21.70;99.90
2873;DHT22;1444;49.166;7.312;2022-07-21T00:10:18;21.70;99.90
2873;DHT22;1444;49.166;7.312;2022-07-21T00:12:45;21.60;99.90
2873;DHT22;1444;49.166;7.312;2022-07-21T00:15:12;21.60;99.90
2873;DHT22;1444;49.166;7.312;2022-07-21T00:17:41;21.50;99.90
2873;DHT22;1444;49.166;7.312;2022-07-21T00:20:09;21.40;99.90
2873;DHT22;1444;49.166;7.312;2022-07-21T00:22:37;21.40;99.90
2873;DHT22;1444;49.166;7.312;2022-07-21T00:25:05;21.20;99.90
2873;DHT22;1444;49.166;7.312;2022-07-21T00:27:32;21.20;99.90
2873;DHT22;1444;49.166;7.312;2022-07-21T00:29:59;21.30;99.90
2873;DHT22;1444;49.166;7.312;2022-07-21T00:32:26;21.30;99.90
2873;DHT22;1444;49.166;7.312;2022-07-21T00:34:54;21.30;99.90
2873;DHT22;1444;49.166;7.312;2022-07-21T00:37:21;21.20;99.90
2873;DHT22;1444;49.166;7.312;2022-07-21T00:39:49;21.20;99.90
2873;DHT22;1444;49.166;7.312;2022-07-21T00:42:21;21.30;99.90
2873;DHT22;1444;49.166;7.312;2022-07-21T00:44:48;21.20;99.90
2873;DHT22;1444;49.166;7.312;2022-07-21T00:47:18;21.20;99.90
2873;DHT22;1444;49.166;7.312;2022-07-21T00:49:45;21.20;99.90
2873;DHT22;1444;49.166;7.312;2022-07-21T00:52:13;21.20;99.90
2873;DHT22;1444;49.166;7.312;2022-07-21T00:54:40;21.30;99.90
2873;DHT22;1444;49.166;7.312;2022-07-21T00:57:06;21.30;99.90
2873;DHT22;1444;49.166;7.312;2022-07-21T00:59:33;21.30;99.90
2873;DHT22;1444;49.166;7.312;2022-07-21T01:02:01;21.30;99.90
2873;DHT22;1444;49.166;7.312;2022-07-21T01:04:28;21.30;99.90
2873;DHT22;1444;49.166;7.312;2022-07-21T01:06:55;21.30;99.90
2873;DHT22;1444;49.166;7.312;2022-07-21T01:09:23;21.40;99.90
2873;DHT22;1444;49.166;7.312;2022-07-21T01:11:50;21.40;99.90
2873;DHT22;1444;49.166;7.312;2022-07-21T01:14:16;21.40;99.90
2873;DHT22;1444;49.166;7.312;2022-07-21T01:16:43;21.40;99.90
2873;DHT22;1444;49.166;7.312;2022-07-21T01:19:11;21.20;99.90
2873;DHT22;1444;49.166;7.312;2022-07-21T01:21:41;21.20;99.90
2873;DHT22;1444;49.166;7.312;2022-07-21T01:24:08;21.20;99.90
2873;DHT22;1444;49.166;7.312;2022-07-21T01:26:40;21.20;99.90
2873;DHT22;1444;49.166;7.312;2022-07-21T01:29:08;21.20;99.90
2873;DHT22;1444;49.166;7.312;2022-07-21T01:31:36;21.10;99.90
2873;DHT22;1444;49.166;7.312;2022-07-21T01:34:03;21.00;99.90
2873;DHT22;1444;49.166;7.312;2022-07-21T01:36:31;20.90;99.90
2873;DHT22;1444;49.166;7.312;2022-07-21T01:38:59;20.80;99.90
2873;DHT22;1444;49.166;7.312;2022-07-21T01:41:43;20.80;99.90
2873;DHT22;1444;49.166;7.312;2022-07-21T01:44:12;20.90;99.90
2873;DHT22;1444;49.166;7.312;2022-07-21T01:46:41;20.90;99.90
2873;DHT22;1444;49.166;7.312;2022-07-21T01:49:10;20.90;99.90
2873;DHT22;1444;49.166;7.312;2022-07-21T01:51:37;20.90;99.90
2873;DHT22;1444;49.166;7.312;2022-07-21T01:54:06;20.80;99.90
2873;DHT22;1444;49.166;7.312;2022-07-21T01:56:34;20.90;99.90
2873;DHT22;1444;49.166;7.312;2022-07-21T01:59:01;20.90;99.90
2873;DHT22;1444;49.166;7.312;2022-07-21T02:01:28;21.00;99.90
2873;DHT22;1444;49.166;7.312;2022-07-21T02:03:56;21.00;99.90
2873;DHT22;1444;49.166;7.312;2022-07-21T02:06:23;21.00;99.90
2873;DHT22;1444;49.166;7.312;2022-07-21T02:11:19;21.00;99.90
2873;DHT22;1444;49.166;7.312;2022-07-21T02:13:46;20.80;99.90
2873;DHT22;1444;49.166;7.312;2022-07-21T02:16:13;20.70;99.90
2873;DHT22;1444;49.166;7.312;2022-07-21T02:18:41;20.70;99.90
2873;DHT22;1444;49.166;7.312;2022-07-21T02:21:08;20.80;99.90
2873;DHT22;1444;49.166;7.312;2022-07-21T02:23:34;20.90;99.90
2873;DHT22;1444;49.166;7.312;2022-07-21T02:26:02;20.80;99.90
2873;DHT22;1444;49.166;7.312;2022-07-21T02:28:30;20.80;99.90
2873;DHT22;1444;49.166;7.312;2022-07-21T02:30:57;20.60;99.90
2873;DHT22;1444;49.166;7.312;2022-07-21T02:33:24;20.50;99.90
2873;DHT22;1444;49.166;7.312;2022-07-21T02:35:50;20.50;99.90
2873;DHT22;1444;49.166;7.312;2022-07-21T02:38:17;20.30;99.90
2873;DHT22;1444;49.166;7.312;2022-07-21T02:40:44;20.30;99.90
2873;DHT22;1444;49.166;7.312;2022-07-21T02:43:11;20.20;99.90
2873;DHT22;1444;49.166;7.312;2022-07-21T02:45:39;20.20;99.90
2873;DHT22;1444;49.166;7.312;2022-07-21T02:48:08;20.10;99.90
2873;DHT22;1444;49.166;7.312;2022-07-21T02:50:37;20.20;99.90
2873;DHT22;1444;49.166;7.312;2022-07-21T02:53:06;20.20;99.90
2873;DHT22;1444;49.166;7.312;2022-07-21T02:55:34;20.20;99.90
2873;DHT22;1444;49.166;7.312;2022-07-21T02:58:05;20.20;99.90
2873;DHT22;1444;49.166;7.312;2022-07-21T03:00:32;20.20;99.90
2873;DHT22;1444;49.166;7.312;2022-07-21T03:03:01;20.20;99.90
2873;DHT22;1444;49.166;7.312;2022-07-21T03:05:29;20.20;99.90
2873;DHT22;1444;49.166;7.312;2022-07-21T03:07:56;20.10;99.90
2873;DHT22;1444;49.166;7.312;2022-07-21T03:10:23;20.10;99.90
2873;DHT22;1444;49.166;7.312;2022-07-21T03:12:49;20.20;99.90
2873;DHT22;1444;49.166;7.312;2022-07-21T03:15:16;20.20;99.90
2873;DHT22;1444;49.166;7.312;2022-07-21T03:17:43;20.30;99.90
2873;DHT22;1444;49.166;7.312;2022-07-21T03:20:12;20.30;99.90
2873;DHT22;1444;49.166;7.312;2022-07-21T03:22:38;20.30;99.90
2873;DHT22;1444;49.166;7.312;2022-07-21T03:25:06;20.20;99.90
2873;DHT22;1444;49.166;7.312;2022-07-21T03:27:33;20.20;99.90
2873;DHT22;1444;49.166;7.312;2022-07-21T03:30:06;20.20;99.90
2873;DHT22;1444;49.166;7.312;2022-07-21T03:32:34;20.20;99.90
2873;DHT22;1444;49.166;7.312;2022-07-21T03:35:02;20.30;99.90
2873;DHT22;1444;49.166;7.312;2022-07-21T03:37:30;20.40;99.90
2873;DHT22;1444;49.166;7.312;2022-07-21T03:39:58;20.40;99.90
2873;DHT22;1444;49.166;7.312;2022-07-21T03:42:25;20.40;99.90
2873;DHT22;1444;49.166;7.312;2022-07-21T03:44:51;20.40;99.90
2873;DHT22;1444;49.166;7.312;2022-07-21T03:47:18;20.40;99.90
2873;DHT22;1444;49.166;7.312;2022-07-21T03:49:45;20.40;99.90
2873;DHT22;1444;49.166;7.312;2022-07-21T03:52:11;20.50;99.90
2873;DHT22;1444;49.166;7.312;2022-07-21T03:54:39;20.50;99.90
2873;DHT22;1444;49.166;7.312;2022-07-21T03:57:06;20.50;99.90
2873;DHT22;1444;49.166;7.312;2022-07-21T03:59:33;20.60;99.90
2873;DHT22;1444;49.166;7.312;2022-07-21T04:01:59;20.60;99.90
2873;DHT22;1444;49.166;7.312;2022-07-21T04:04:26;20.70;99.90
2873;DHT22;1444;49.166;7.312;2022-07-21T04:06:53;20.70;99.90
2873;DHT22;1444;49.166;7.312;2022-07-21T04:09:19;20.70;99.90
2873;DHT22;1444;49.166;7.312;2022-07-21T04:11:48;20.70;99.90
2873;DHT22;1444;49.166;7.312;2022-07-21T04:14:14;20.80;99.90
2873;DHT22;1444;49.166;7.312;2022-07-21T04:16:41;20.70;99.90
2873;DHT22;1444;49.166;7.312;2022-07-21T04:19:08;20.70;99.90
2873;DHT22;1444;49.166;7.312;2022-07-21T04:21:34;20.80;99.90
2873;DHT22;1444;49.166;7.312;2022-07-21T04:24:01;20.90;99.90
2873;DHT22;1444;49.166;7.312;2022-07-21T04:26:28;20.90;99.90
2873;DHT22;1444;49.166;7.312;2022-07-21T04:28:56;21.00;99.90
2873;DHT22;1444;49.166;7.312;2022-07-21T04:31:23;21.00;99.90
2873;DHT22;1444;49.166;7.312;2022-07-21T04:33:50;21.10;99.90
2873;DHT22;1444;49.166;7.312;2022-07-21T04:36:16;21.10;99.90
2873;DHT22;1444;49.166;7.312;2022-07-21T04:38:43;21.00;99.90
2873;DHT22;1444;49.166;7.312;2022-07-21T04:41:10;20.90;99.90
2873;DHT22;1444;49.166;7.312;2022-07-21T04:43:37;20.80;99.90
2873;DHT22;1444;49.166;7.312;2022-07-21T04:46:05;20.80;99.90
2873;DHT22;1444;49.166;7.312;2022-07-21T04:48:32;20.80;99.90
2873;DHT22;1444;49.166;7.312;2022-07-21T04:50:58;20.80;99.90
2873;DHT22;1444;49.166;7.312;2022-07-21T04:53:25;20.80;99.90
2873;DHT22;1444;49.166;7.312;2022-07-21T04:55:52;20.70;99.90
2873;DHT22;1444;49.166;7.312;2022-07-21T04:58:19;20.80;99.90
2873;DHT22;1444;49.166;7.312;2022-07-21T05:00:45;20.80;99.90
2873;DHT22;1444;49.166;7.312;2022-07-21T05:03:13;20.80;99.90
2873;DHT22;1444;49.166;7.312;2022-07-21T05:05:40;20.80;99.90
2873;DHT22;1444;49.166;7.312;2022-07-21T05:08:07;20.80;99.90
2873;DHT22;1444;49.166;7.312;2022-07-21T05:10:34;20.90;99.90
2873;DHT22;1444;49.166;7.312;2022-07-21T05:13:01;20.90;99.90
2873;DHT22;1444;49.166;7.312;2022-07-21T05:15:27;20.90;99.90
2873;DHT22;1444;49.166;7.312;2022-07-21T05:17:54;20.70;99.90
2873;DHT22;1444;49.166;7.312;2022-07-21T05:20:22;20.70;99.90
2873;DHT22;1444;49.166;7.312;2022-07-21T05:22:49;20.80;99.90
2873;DHT22;1444;49.166;7.312;2022-07-21T05:25:16;20.90;99.90
2873;DHT22;1444;49.166;7.312;2022-07-21T05:27:42;20.90;99.90
2873;DHT22;1444;49.166;7.312;2022-07-21T05:30:10;21.00;99.90
2873;DHT22;1444;49.166;7.312;2022-07-21T05:32:37;21.00;99.90
2873;DHT22;1444;49.166;7.312;2022-07-21T05:35:05;20.90;99.90
2873;DHT22;1444;49.166;7.312;2022-07-21T05:37:38;20.90;99.90
2873;DHT22;1444;49.166;7.312;2022-07-21T05:40:06;20.90;99.90
2873;DHT22;1444;49.166;7.312;2022-07-21T05:42:32;21.00;99.90
2873;DHT22;1444;49.166;7.312;2022-07-21T05:44:59;20.90;99.90
2873;DHT22;1444;49.166;7.312;2022-07-21T05:47:26;20.90;99.90
2873;DHT22;1444;49.166;7.312;2022-07-21T05:49:53;20.90;99.90
2873;DHT22;1444;49.166;7.312;2022-07-21T05:52:20;20.90;99.90
2873;DHT22;1444;49.166;7.312;2022-07-21T05:54:48;21.00;99.90
2873;DHT22;1444;49.166;7.312;2022-07-21T05:57:14;20.90;99.90
2873;DHT22;1444;49.166;7.312;2022-07-21T05:59:41;21.00;99.90
2873;DHT22;1444;49.166;7.312;2022-07-21T06:02:08;21.00;99.90
2873;DHT22;1444;49.166;7.312;2022-07-21T06:04:35;21.10;99.90
2873;DHT22;1444;49.166;7.312;2022-07-21T06:07:02;21.10;99.90
2873;DHT22;1444;49.166;7.312;2022-07-21T06:09:29;21.10;99.90
2873;DHT22;1444;49.166;7.312;2022-07-21T06:11:57;21.20;99.90
2873;DHT22;1444;49.166;7.312;2022-07-21T06:14:23;21.40;99.90
2873;DHT22;1444;49.166;7.312;2022-07-21T06:16:50;21.50;99.90
2873;DHT22;1444;49.166;7.312;2022-07-21T06:19:17;21.50;99.90
2873;DHT22;1444;49.166;7.312;2022-07-21T06:21:44;21.60;99.90
2873;DHT22;1444;49.166;7.312;2022-07-21T06:24:10;21.60;99.90
2873;DHT22;1444;49.166;7.312;2022-07-21T06:26:37;21.70;99.90
2873;DHT22;1444;49.166;7.312;2022-07-21T06:29:06;21.80;99.90
2873;DHT22;1444;49.166;7.312;2022-07-21T06:31:33;21.70;99.90
2873;DHT22;1444;49.166;7.312;2022-07-21T06:34:00;21.70;99.90
2873;DHT22;1444;49.166;7.312;2022-07-21T06:36:27;21.70;99.90
2873;DHT22;1444;49.166;7.312;2022-07-21T06:38:54;21.80;99.90
2873;DHT22;1444;49.166;7.312;2022-07-21T06:41:20;21.90;99.90
2873;DHT22;1444;49.166;7.312;2022-07-21T06:43:47;21.90;99.90
2873;DHT22;1444;49.166;7.312;2022-07-21T06:46:15;22.00;99.90
2873;DHT22;1444;49.166;7.312;2022-07-21T06:48:42;21.90;99.90
2873;DHT22;1444;49.166;7.312;2022-07-21T06:51:09;22.00;99.90
2873;DHT22;1444;49.166;7.312;2022-07-21T06:53:35;22.00;99.90
2873;DHT22;1444;49.166;7.312;2022-07-21T06:56:02;21.90;99.90
2873;DHT22;1444;49.166;7.312;2022-07-21T06:58:30;21.90;99.90
2873;DHT22;1444;49.166;7.312;2022-07-21T07:00:58;22.00;99.90
2873;DHT22;1444;49.166;7.312;2022-07-21T07:03:26;22.00;99.90
2873;DHT22;1444;49.166;7.312;2022-07-21T07:05:53;22.20;99.90
2873;DHT22;1444;49.166;7.312;2022-07-21T07:08:20;22.30;99.90
2873;DHT22;1444;49.166;7.312;2022-07-21T07:10:46;22.50;99.90
2873;DHT22;1444;49.166;7.312;2022-07-21T07:13:13;22.60;99.90
2873;DHT22;1444;49.166;7.312;2022-07-21T07:15:41;22.80;99.90
2873;DHT22;1444;49.166;7.312;2022-07-21T07:18:07;22.90;99.90
2873;DHT22;1444;49.166;7.312;2022-07-21T07:20:36;22.80;99.90
2873;DHT22;1444;49.166;7.312;2022-07-21T07:23:03;22.80;99.90
2873;DHT22;1444;49.166;7.312;2022-07-21T07:25:29;22.80;99.90
2873;DHT22;1444;49.166;7.312;2022-07-21T07:27:56;22.80;99.90
2873;DHT22;1444;49.166;7.312;2022-07-21T07:30:24;22.80;99.60
2873;DHT22;1444;49.166;7.312;2022-07-21T07:32:50;22.90;99.90
2873;DHT22;1444;49.166;7.312;2022-07-21T07:35:17;22.90;99.90
2873;DHT22;1444;49.166;7.312;2022-07-21T07:37:46;23.10;99.90
2873;DHT22;1444;49.166;7.312;2022-07-21T07:40:15;23.30;99.70
2873;DHT22;1444;49.166;7.312;2022-07-21T07:42:42;23.20;99.20
2873;DHT22;1444;49.166;7.312;2022-07-21T07:45:10;23.20;98.40
2873;DHT22;1444;49.166;7.312;2022-07-21T07:47:37;23.30;98.40
2873;DHT22;1444;49.166;7.312;2022-07-21T07:52:32;23.30;98.60
2873;DHT22;1444;49.166;7.312;2022-07-21T07:55:00;23.40;99.20
2873;DHT22;1444;49.166;7.312;2022-07-21T07:57:29;23.60;98.30
2873;DHT22;1444;49.166;7.312;2022-07-21T07:59:56;23.90;98.60
2873;DHT22;1444;49.166;7.312;2022-07-21T08:02:22;23.80;97.80
2873;DHT22;1444;49.166;7.312;2022-07-21T08:04:49;23.70;96.90
2873;DHT22;1444;49.166;7.312;2022-07-21T08:07:16;23.70;97.40
2873;DHT22;1444;49.166;7.312;2022-07-21T08:09:43;23.60;97.50
2873;DHT22;1444;49.166;7.312;2022-07-21T08:12:11;23.60;97.20
2873;DHT22;1444;49.166;7.312;2022-07-21T08:14:38;24.00;96.90
2873;DHT22;1444;49.166;7.312;2022-07-21T08:17:05;24.10;96.90
2873;DHT22;1444;49.166;7.312;2022-07-21T08:19:32;24.30;97.20
2873;DHT22;1444;49.166;7.312;2022-07-21T08:21:59;24.40;95.90
2873;DHT22;1444;49.166;7.312;2022-07-21T08:24:26;24.50;95.80
2873;DHT22;1444;49.166;7.312;2022-07-21T08:26:53;24.50;95.60
2873;DHT22;1444;49.166;7.312;2022-07-21T08:29:21;24.50;94.50
2873;DHT22;1444;49.166;7.312;2022-07-21T08:31:48;24.80;94.60
2873;DHT22;1444;49.166;7.312;2022-07-21T08:34:15;25.00;94.40
2873;DHT22;1444;49.166;7.312;2022-07-21T08:36:42;25.10;94.30
2873;DHT22;1444;49.166;7.312;2022-07-21T08:39:08;25.10;93.60
2873;DHT22;1444;49.166;7.312;2022-07-21T08:41:35;25.40;93.80
2873;DHT22;1444;49.166;7.312;2022-07-21T08:44:02;25.40;91.90
2873;DHT22;1444;49.166;7.312;2022-07-21T08:46:31;25.40;92.40
2873;DHT22;1444;49.166;7.312;2022-07-21T08:49:01;25.40;91.90
2873;DHT22;1444;49.166;7.312;2022-07-21T08:51:32;25.40;92.20
2873;DHT22;1444;49.166;7.312;2022-07-21T08:53:58;25.40;92.10
2873;DHT22;1444;49.166;7.312;2022-07-21T08:56:25;25.30;92.30
2873;DHT22;1444;49.166;7.312;2022-07-21T08:58:52;25.40;93.30
2873;DHT22;1444;49.166;7.312;2022-07-21T09:01:19;25.50;93.60
2873;DHT22;1444;49.166;7.312;2022-07-21T09:03:51;25.60;92.20
2873;DHT22;1444;49.166;7.312;2022-07-21T09:06:18;25.40;92.10
2873;DHT22;1444;49.166;7.312;2022-07-21T09:08:46;25.30;91.70
2873;DHT22;1444;49.166;7.312;2022-07-21T09:11:19;25.30;93.30
2873;DHT22;1444;49.166;7.312;2022-07-21T09:13:48;25.10;92.60
2873;DHT22;1444;49.166;7.312;2022-07-21T09:16:32;25.60;92.70
2873;DHT22;1444;49.166;7.312;2022-07-21T09:19:01;25.60;92.30
2873;DHT22;1444;49.166;7.312;2022-07-21T09:21:28;25.90;91.70
2873;DHT22;1444;49.166;7.312;2022-07-21T09:24:11;26.20;90.50
2873;DHT22;1444;49.166;7.312;2022-07-21T09:26:56;26.10;90.00
2873;DHT22;1444;49.166;7.312;2022-07-21T09:29:23;26.10;88.70
2873;DHT22;1444;49.166;7.312;2022-07-21T09:31:50;26.10;88.30
2873;DHT22;1444;49.166;7.312;2022-07-21T09:34:18;26.10;89.30
2873;DHT22;1444;49.166;7.312;2022-07-21T09:36:54;26.20;89.80
2873;DHT22;1444;49.166;7.312;2022-07-21T09:39:40;26.50;89.90
2873;DHT22;1444;49.166;7.312;2022-07-21T09:42:19;26.60;87.90
2873;DHT22;1444;49.166;7.312;2022-07-21T09:44:47;26.70;87.00
2873;DHT22;1444;49.166;7.312;2022-07-21T09:47:17;26.90;87.60
2873;DHT22;1444;49.166;7.312;2022-07-21T09:49:46;27.00;87.20
2873;DHT22;1444;49.166;7.312;2022-07-21T09:52:28;26.70;83.40
2873;DHT22;1444;49.166;7.312;2022-07-21T09:54:58;26.50;85.40
2873;DHT22;1444;49.166;7.312;2022-07-21T09:57:26;26.60;85.40
2873;DHT22;1444;49.166;7.312;2022-07-21T09:59:53;26.60;82.40
2873;DHT22;1444;49.166;7.312;2022-07-21T10:02:21;26.50;81.60
2873;DHT22;1444;49.166;7.312;2022-07-21T10:04:55;26.60;82.20
2873;DHT22;1444;49.166;7.312;2022-07-21T10:07:23;26.70;82.40
2873;DHT22;1444;49.166;7.312;2022-07-21T10:09:49;26.90;83.60
2873;DHT22;1444;49.166;7.312;2022-07-21T10:12:16;26.90;81.70
2873;DHT22;1444;49.166;7.312;2022-07-21T10:14:44;26.70;81.10
2873;DHT22;1444;49.166;7.312;2022-07-21T10:17:12;26.60;81.10
2873;DHT22;1444;49.166;7.312;2022-07-21T10:19:44;26.50;81.50
2873;DHT22;1444;49.166;7.312;2022-07-21T10:22:20;26.30;80.80
2873;DHT22;1444;49.166;7.312;2022-07-21T10:24:49;26.60;83.40
2873;DHT22;1444;49.166;7.312;2022-07-21T10:27:18;26.60;83.00
2873;DHT22;1444;49.166;7.312;2022-07-21T10:29:53;26.60;81.60
2873;DHT22;1444;49.166;7.312;2022-07-21T10:32:25;26.80;81.80
2873;DHT22;1444;49.166;7.312;2022-07-21T10:34:53;27.00;81.80
2873;DHT22;1444;49.166;7.312;2022-07-21T10:37:44;27.20;80.70
2873;DHT22;1444;49.166;7.312;2022-07-21T10:40:36;27.50;80.00
2873;DHT22;1444;49.166;7.312;2022-07-21T10:46:33;27.30;76.70
2873;DHT22;1444;49.166;7.312;2022-07-21T10:49:01;27.30;78.60
2873;DHT22;1444;49.166;7.312;2022-07-21T10:51:30;27.30;78.10
2873;DHT22;1444;49.166;7.312;2022-07-21T10:54:24;27.50;78.10
2873;DHT22;1444;49.166;7.312;2022-07-21T10:57:25;27.60;78.50
2873;DHT22;1444;49.166;7.312;2022-07-21T11:00:22;27.80;75.30
2873;DHT22;1444;49.166;7.312;2022-07-21T11:02:51;27.60;75.90
2873;DHT22;1444;49.166;7.312;2022-07-21T11:05:18;27.70;77.60
2873;DHT22;1444;49.166;7.312;2022-07-21T11:08:14;27.70;77.60
2873;DHT22;1444;49.166;7.312;2022-07-21T11:10:44;27.90;75.30
2873;DHT22;1444;49.166;7.312;2022-07-21T11:13:12;27.80;75.30
2873;DHT22;1444;49.166;7.312;2022-07-21T11:15:44;27.80;76.10
2873;DHT22;1444;49.166;7.312;2022-07-21T11:18:15;27.90;77.00
2873;DHT22;1444;49.166;7.312;2022-07-21T11:20:42;28.40;74.60
2873;DHT22;1444;49.166;7.312;2022-07-21T11:23:09;28.50;73.80
2873;DHT22;1444;49.166;7.312;2022-07-21T11:25:36;28.70;74.90
2873;DHT22;1444;49.166;7.312;2022-07-21T11:28:16;28.80;72.70
2873;DHT22;1444;49.166;7.312;2022-07-21T11:30:43;29.00;73.60
2873;DHT22;1444;49.166;7.312;2022-07-21T11:33:09;28.80;72.80
2873;DHT22;1444;49.166;7.312;2022-07-21T11:35:37;28.70;72.80
2873;DHT22;1444;49.166;7.312;2022-07-21T11:38:04;28.30;73.10
2873;DHT22;1444;49.166;7.312;2022-07-21T11:40:31;28.10;73.40
2873;DHT22;1444;49.166;7.312;2022-07-21T11:42:57;27.90;73.50
2873;DHT22;1444;49.166;7.312;2022-07-21T11:45:25;27.90;74.20
2873;DHT22;1444;49.166;7.312;2022-07-21T11:47:53;28.10;75.30
2873;DHT22;1444;49.166;7.312;2022-07-21T11:50:20;28.10;74.70
2873;DHT22;1444;49.166;7.312;2022-07-21T11:52:47;28.30;74.60
2873;DHT22;1444;49.166;7.312;2022-07-21T11:55:15;28.30;73.00
2873;DHT22;1444;49.166;7.312;2022-07-21T11:57:43;28.50;72.10
2873;DHT22;1444;49.166;7.312;2022-07-21T12:00:11;28.50;72.20
2873;DHT22;1444;49.166;7.312;2022-07-21T12:02:40;28.70;71.80
2873;DHT22;1444;49.166;7.312;2022-07-21T12:05:08;28.50;71.60
2873;DHT22;1444;49.166;7.312;2022-07-21T12:07:37;28.80;72.30
2873;DHT22;1444;49.166;7.312;2022-07-21T12:10:07;29.00;72.30
2873;DHT22;1444;49.166;7.312;2022-07-21T12:15:14;28.60;70.40
2873;DHT22;1444;49.166;7.312;2022-07-21T12:17:44;28.80;72.00
2873;DHT22;1444;49.166;7.312;2022-07-21T12:20:12;29.00;70.70
2873;DHT22;1444;49.166;7.312;2022-07-21T12:22:40;29.00;69.70
2873;DHT22;1444;49.166;7.312;2022-07-21T12:25:11;29.20;71.70
2873;DHT22;1444;49.166;7.312;2022-07-21T12:27:40;29.10;71.90
2873;DHT22;1444;49.166;7.312;2022-07-21T12:30:29;29.20;70.90
2873;DHT22;1444;49.166;7.312;2022-07-21T12:33:02;29.40;70.70
2873;DHT22;1444;49.166;7.312;2022-07-21T12:35:29;29.40;71.50
2873;DHT22;1444;49.166;7.312;2022-07-21T12:38:03;29.70;70.20
2873;DHT22;1444;49.166;7.312;2022-07-21T12:40:31;29.70;68.70
2873;DHT22;1444;49.166;7.312;2022-07-21T12:43:06;29.80;69.60
2873;DHT22;1444;49.166;7.312;2022-07-21T12:45:48;29.80;69.30
2873;DHT22;1444;49.166;7.312;2022-07-21T12:48:18;29.80;68.70
2873;DHT22;1444;49.166;7.312;2022-07-21T12:51:06;29.80;69.00
2873;DHT22;1444;49.166;7.312;2022-07-21T12:53:38;29.80;68.30
2873;DHT22;1444;49.166;7.312;2022-07-21T12:56:05;30.00;69.10
2873;DHT22;1444;49.166;7.312;2022-07-21T12:58:32;30.00;70.20
2873;DHT22;1444;49.166;7.312;2022-07-21T13:00:59;30.10;66.50
2873;DHT22;1444;49.166;7.312;2022-07-21T13:03:29;30.10;66.70
2873;DHT22;1444;49.166;7.312;2022-07-21T13:05:56;30.20;68.10
2873;DHT22;1444;49.166;7.312;2022-07-21T13:08:23;30.20;66.10
2873;DHT22;1444;49.166;7.312;2022-07-21T13:10:50;30.20;66.10
2873;DHT22;1444;49.166;7.312;2022-07-21T13:13:16;30.30;65.90
2873;DHT22;1444;49.166;7.312;2022-07-21T13:15:43;30.20;65.60
2873;DHT22;1444;49.166;7.312;2022-07-21T13:18:10;30.30;67.00
2873;DHT22;1444;49.166;7.312;2022-07-21T13:20:38;30.20;65.60
2873;DHT22;1444;49.166;7.312;2022-07-21T13:23:05;30.40;65.90
2873;DHT22;1444;49.166;7.312;2022-07-21T13:25:33;30.30;64.60
2873;DHT22;1444;49.166;7.312;2022-07-21T13:28:00;30.10;65.40
2873;DHT22;1444;49.166;7.312;2022-07-21T13:30:27;29.60;66.50
2873;DHT22;1444;49.166;7.312;2022-07-21T13:32:54;29.50;66.80
2873;DHT22;1444;49.166;7.312;2022-07-21T13:35:21;29.40;67.50
2873;DHT22;1444;49.166;7.312;2022-07-21T13:37:49;29.60;69.50
2873;DHT22;1444;49.166;7.312;2022-07-21T13:40:16;29.90;69.60
2873;DHT22;1444;49.166;7.312;2022-07-21T13:42:43;30.20;68.60
2873;DHT22;1444;49.166;7.312;2022-07-21T13:45:09;30.50;68.00
2873;DHT22;1444;49.166;7.312;2022-07-21T13:47:39;30.60;68.20
2873;DHT22;1444;49.166;7.312;2022-07-21T13:50:06;30.70;67.70
2873;DHT22;1444;49.166;7.312;2022-07-21T13:52:33;30.70;67.10
2873;DHT22;1444;49.166;7.312;2022-07-21T13:55:02;30.70;65.00
2873;DHT22;1444;49.166;7.312;2022-07-21T13:57:28;30.70;64.30
2873;DHT22;1444;49.166;7.312;2022-07-21T13:59:55;30.80;64.70
2873;DHT22;1444;49.166;7.312;2022-07-21T14:02:22;30.60;63.90
2873;DHT22;1444;49.166;7.312;2022-07-21T14:04:49;30.60;64.60
2873;DHT22;1444;49.166;7.312;2022-07-21T14:07:15;30.60;65.70
2873;DHT22;1444;49.166;7.312;2022-07-21T14:09:43;30.60;65.40
2873;DHT22;1444;49.166;7.312;2022-07-21T14:12:11;30.60;65.50
2873;DHT22;1444;49.166;7.312;2022-07-21T14:14:38;30.50;66.10
2873;DHT22;1444;49.166;7.312;2022-07-21T14:17:07;30.50;66.20
2873;DHT22;1444;49.166;7.312;2022-07-21T14:19:34;30.60;66.90
2873;DHT22;1444;49.166;7.312;2022-07-21T14:22:01;30.30;65.30
2873;DHT22;1444;49.166;7.312;2022-07-21T14:24:28;30.40;67.10
2873;DHT22;1444;49.166;7.312;2022-07-21T14:27:13;30.20;65.40
2873;DHT22;1444;49.166;7.312;2022-07-21T14:29:40;30.30;66.60
2873;DHT22;1444;49.166;7.312;2022-07-21T14:32:07;30.20;65.90
2873;DHT22;1444;49.166;7.312;2022-07-21T14:34:33;30.10;66.00
2873;DHT22;1444;49.166;7.312;2022-07-21T14:37:00;30.20;65.90
2873;DHT22;1444;49.166;7.312;2022-07-21T14:39:27;30.20;66.20
2873;DHT22;1444;49.166;7.312;2022-07-21T14:41:53;30.30;66.00
2873;DHT22;1444;49.166;7.312;2022-07-21T14:44:21;30.40;65.70
2873;DHT22;1444;49.166;7.312;2022-07-21T14:46:48;30.50;65.10
2873;DHT22;1444;49.166;7.312;2022-07-21T14:49:15;30.70;65.80
2873;DHT22;1444;49.166;7.312;2022-07-21T14:51:41;30.90;63.40
2873;DHT22;1444;49.166;7.312;2022-07-21T14:54:08;31.10;65.30
2873;DHT22;1444;49.166;7.312;2022-07-21T14:56:35;31.30;65.10
2873;DHT22;1444;49.166;7.312;2022-07-21T14:59:01;31.30;66.40
2873;DHT22;1444;49.166;7.312;2022-07-21T15:01:29;31.20;64.80
2873;DHT22;1444;49.166;7.312;2022-07-21T15:03:56;31.30;66.00
2873;DHT22;1444;49.166;7.312;2022-07-21T15:06:23;31.20;64.60
2873;DHT22;1444;49.166;7.312;2022-07-21T15:08:49;31.10;64.80
2873;DHT22;1444;49.166;7.312;2022-07-21T15:11:16;31.30;67.00
2873;DHT22;1444;49.166;7.312;2022-07-21T15:13:43;31.40;65.10
2873;DHT22;1444;49.166;7.312;2022-07-21T15:16:10;31.40;63.70
2873;DHT22;1444;49.166;7.312;2022-07-21T15:18:38;31.30;64.20
2873;DHT22;1444;49.166;7.312;2022-07-21T15:21:05;31.30;65.60
2873;DHT22;1444;49.166;7.312;2022-07-21T15:23:32;31.30;65.00
2873;DHT22;1444;49.166;7.312;2022-07-21T15:25:59;31.60;64.40
2873;DHT22;1444;49.166;7.312;2022-07-21T15:28:25;31.60;63.90
2873;DHT22;1444;49.166;7.312;2022-07-21T15:30:52;31.70;63.30
2873;DHT22;1444;49.166;7.312;2022-07-21T15:33:19;31.50;62.40
2873;DHT22;1444;49.166;7.312;2022-07-21T15:35:47;31.40;63.70
2873;DHT22;1444;49.166;7.312;2022-07-21T15:38:14;31.40;65.00
2873;DHT22;1444;49.166;7.312;2022-07-21T15:40:41;31.30;64.30
2873;DHT22;1444;49.166;7.312;2022-07-21T15:43:08;31.40;64.50
2873;DHT22;1444;49.166;7.312;2022-07-21T15:45:34;31.00;63.30
2873;DHT22;1444;49.166;7.312;2022-07-21T15:48:01;30.80;64.70
2873;DHT22;1444;49.166;7.312;2022-07-21T15:50:28;30.60;64.40
2873;DHT22;1444;49.166;7.312;2022-07-21T15:52:57;30.60;65.40
2873;DHT22;1444;49.166;7.312;2022-07-21T15:55:24;30.70;65.30
2873;DHT22;1444;49.166;7.312;2022-07-21T15:57:50;30.50;65.00
2873;DHT22;1444;49.166;7.312;2022-07-21T16:00:18;30.40;64.90
2873;DHT22;1444;49.166;7.312;2022-07-21T16:02:45;30.40;65.80
2873;DHT22;1444;49.166;7.312;2022-07-21T16:05:13;30.40;65.00
2873;DHT22;1444;49.166;7.312;2022-07-21T16:07:41;30.50;66.10
2873;DHT22;1444;49.166;7.312;2022-07-21T16:10:10;30.50;64.60
2873;DHT22;1444;49.166;7.312;2022-07-21T16:12:38;30.50;64.60
2873;DHT22;1444;49.166;7.312;2022-07-21T16:15:06;30.50;64.20
2873;DHT22;1444;49.166;7.312;2022-07-21T16:17:33;30.40;64.20
2873;DHT22;1444;49.166;7.312;2022-07-21T16:20:00;30.40;65.00